sensor_id;sensor_type;location;lat;lon;timestamp;P1;durP1;ratioP1;P2;durP2;ratioP2
8293;SDS011;4185;41.506;24.938;2023-09-18T00:01:48;10.90;;;8.80;;
8293;SDS011;4185;41.506;24.938;2023-09-18T00:04:14;13.87;;;10.97;;
8293;SDS011;4185;41.506;24.938;2023-09-18T00:06:41;14.93;;;11.60;;
8293;SDS011;4185;41.506;24.938;2023-09-18T00:09:08;16.00;;;11.00;;
8293;SDS011;4185;41.506;24.938;2023-09-18T00:11:38;18.80;;;11.90;;
8293;SDS011;4185;41.506;24.938;2023-09-18T00:14:05;12.60;;;10.60;;
8293;SDS011;4185;41.506;24.938;2023-09-18T00:16:36;12.77;;;10.10;;
8293;SDS011;4185;41.506;24.938;2023-09-18T00:19:03;11.47;;;9.43;;
8293;SDS011;4185;41.506;24.938;2023-09-18T00:21:31;12.77;;;10.40;;
8293;SDS011;4185;41.506;24.938;2023-09-18T00:23:58;12.93;;;10.20;;
8293;SDS011;4185;41.506;24.938;2023-09-18T00:26:25;13.07;;;9.47;;
8293;SDS011;4185;41.506;24.938;2023-09-18T00:28:52;10.70;;;9.60;;
8293;SDS011;4185;41.506;24.938;2023-09-18T00:31:19;12.80;;;10.27;;
8293;SDS011;4185;41.506;24.938;2023-09-18T00:33:47;12.53;;;10.17;;
8293;SDS011;4185;41.506;24.938;2023-09-18T00:36:14;14.73;;;10.17;;
8293;SDS011;4185;41.506;24.938;2023-09-18T00:38:41;10.77;;;8.77;;
8293;SDS011;4185;41.506;24.938;2023-09-18T00:41:09;9.37;;;7.47;;
8293;SDS011;4185;41.506;24.938;2023-09-18T00:43:35;10.10;;;7.50;;
8293;SDS011;4185;41.506;24.938;2023-09-18T00:46:02;10.50;;;8.13;;
8293;SDS011;4185;41.506;24.938;2023-09-18T00:48:29;9.10;;;7.63;;
8293;SDS011;4185;41.506;24.938;2023-09-18T00:50:57;10.23;;;6.63;;
8293;SDS011;4185;41.506;24.938;2023-09-18T00:53:24;8.97;;;7.23;;
8293;SDS011;4185;41.506;24.938;2023-09-18T00:55:53;9.47;;;5.80;;
8293;SDS011;4185;41.506;24.938;2023-09-18T00:58:21;8.37;;;6.00;;
8293;SDS011;4185;41.506;24.938;2023-09-18T01:00:48;7.67;;;6.13;;
8293;SDS011;4185;41.506;24.938;2023-09-18T01:03:16;7.67;;;5.67;;
8293;SDS011;4185;41.506;24.938;2023-09-18T01:05:43;7.23;;;5.80;;
8293;SDS011;4185;41.506;24.938;2023-09-18T01:08:12;7.07;;;5.50;;
8293;SDS011;4185;41.506;24.938;2023-09-18T01:10:40;7.87;;;5.83;;
8293;SDS011;4185;41.506;24.938;2023-09-18T01:13:15;6.30;;;5.60;;
8293;SDS011;4185;41.506;24.938;2023-09-18T01:15:48;4.83;;;3.83;;
8293;SDS011;4185;41.506;24.938;2023-09-18T01:18:18;6.27;;;3.73;;
8293;SDS011;4185;41.506;24.938;2023-09-18T01:20:45;4.63;;;3.70;;
8293;SDS011;4185;41.506;24.938;2023-09-18T01:23:13;5.53;;;3.17;;
8293;SDS011;4185;41.506;24.938;2023-09-18T01:25:40;5.87;;;3.23;;
8293;SDS011;4185;41.506;24.938;2023-09-18T01:28:06;5.57;;;4.43;;
8293;SDS011;4185;41.506;24.938;2023-09-18T01:30:33;7.73;;;4.43;;
8293;SDS011;4185;41.506;24.938;2023-09-18T01:33:00;6.23;;;4.60;;
8293;SDS011;4185;41.506;24.938;2023-09-18T01:35:28;6.33;;;4.00;;
8293;SDS011;4185;41.506;24.938;2023-09-18T01:37:57;3.47;;;2.73;;
8293;SDS011;4185;41.506;24.938;2023-09-18T01:40:27;5.60;;;2.80;;
8293;SDS011;4185;41.506;24.938;2023-09-18T01:42:55;5.37;;;3.00;;
8293;SDS011;4185;41.506;24.938;2023-09-18T01:45:21;5.53;;;3.70;;
8293;SDS011;4185;41.506;24.938;2023-09-18T01:47:48;7.97;;;3.13;;
8293;SDS011;4185;41.506;24.938;2023-09-18T01:50:15;3.67;;;2.60;;
8293;SDS011;4185;41.506;24.938;2023-09-18T01:52:42;5.10;;;3.17;;
8293;SDS011;4185;41.506;24.938;2023-09-18T01:55:09;4.03;;;3.30;;
8293;SDS011;4185;41.506;24.938;2023-09-18T01:57:37;6.87;;;3.03;;
8293;SDS011;4185;41.506;24.938;2023-09-18T02:00:05;3.20;;;2.57;;
8293;SDS011;4185;41.506;24.938;2023-09-18T02:02:34;3.67;;;3.00;;
8293;SDS011;4185;41.506;24.938;2023-09-18T02:05:01;7.60;;;2.93;;
8293;SDS011;4185;41.506;24.938;2023-09-18T02:07:28;4.93;;;2.93;;
8293;SDS011;4185;41.506;24.938;2023-09-18T02:09:56;5.83;;;3.10;;
8293;SDS011;4185;41.506;24.938;2023-09-18T02:12:23;6.10;;;2.70;;
8293;SDS011;4185;41.506;24.938;2023-09-18T02:14:51;3.77;;;2.80;;
8293;SDS011;4185;41.506;24.938;2023-09-18T02:17:18;5.73;;;3.17;;
8293;SDS011;4185;41.506;24.938;2023-09-18T02:19:45;5.73;;;2.90;;
8293;SDS011;4185;41.506;24.938;2023-09-18T02:22:12;4.70;;;3.00;;
8293;SDS011;4185;41.506;24.938;2023-09-18T02:24:39;4.47;;;3.20;;
8293;SDS011;4185;41.506;24.938;2023-09-18T02:27:05;5.37;;;3.20;;
8293;SDS011;4185;41.506;24.938;2023-09-18T02:29:32;5.33;;;3.57;;
8293;SDS011;4185;41.506;24.938;2023-09-18T02:32:00;5.43;;;4.50;;
8293;SDS011;4185;41.506;24.938;2023-09-18T02:34:27;6.07;;;4.40;;
8293;SDS011;4185;41.506;24.938;2023-09-18T02:36:54;7.30;;;5.13;;
8293;SDS011;4185;41.506;24.938;2023-09-18T02:39:21;7.17;;;3.97;;
8293;SDS011;4185;41.506;24.938;2023-09-18T02:41:47;8.07;;;3.33;;
8293;SDS011;4185;41.506;24.938;2023-09-18T02:44:14;5.90;;;3.40;;
8293;SDS011;4185;41.506;24.938;2023-09-18T02:46:41;4.40;;;3.30;;
8293;SDS011;4185;41.506;24.938;2023-09-18T02:49:10;6.63;;;4.40;;
8293;SDS011;4185;41.506;24.938;2023-09-18T02:51:36;7.10;;;4.90;;
8293;SDS011;4185;41.506;24.938;2023-09-18T02:54:03;5.33;;;3.73;;
8293;SDS011;4185;41.506;24.938;2023-09-18T02:56:30;5.57;;;3.47;;
8293;SDS011;4185;41.506;24.938;2023-09-18T02:58:57;4.83;;;3.10;;
8293;SDS011;4185;41.506;24.938;2023-09-18T03:01:24;5.77;;;3.60;;
8293;SDS011;4185;41.506;24.938;2023-09-18T03:03:50;5.17;;;3.57;;
8293;SDS011;4185;41.506;24.938;2023-09-18T03:06:19;5.83;;;3.50;;
8293;SDS011;4185;41.506;24.938;2023-09-18T03:08:46;7.67;;;3.47;;
8293;SDS011;4185;41.506;24.938;2023-09-18T03:11:13;6.70;;;3.53;;
8293;SDS011;4185;41.506;24.938;2023-09-18T03:13:44;5.33;;;3.47;;
8293;SDS011;4185;41.506;24.938;2023-09-18T03:16:12;4.10;;;3.70;;
8293;SDS011;4185;41.506;24.938;2023-09-18T03:18:39;4.47;;;3.57;;
8293;SDS011;4185;41.506;24.938;2023-09-18T03:21:06;3.73;;;3.20;;
8293;SDS011;4185;41.506;24.938;2023-09-18T03:23:34;6.03;;;3.37;;
8293;SDS011;4185;41.506;24.938;2023-09-18T03:26:01;4.27;;;3.43;;
8293;SDS011;4185;41.506;24.938;2023-09-18T03:28:28;4.70;;;3.30;;
8293;SDS011;4185;41.506;24.938;2023-09-18T03:30:55;7.80;;;3.80;;
8293;SDS011;4185;41.506;24.938;2023-09-18T03:33:23;5.37;;;3.60;;
8293;SDS011;4185;41.506;24.938;2023-09-18T03:35:50;5.63;;;3.73;;
8293;SDS011;4185;41.506;24.938;2023-09-18T03:38:19;5.40;;;3.40;;
8293;SDS011;4185;41.506;24.938;2023-09-18T03:40:48;5.80;;;3.30;;
8293;SDS011;4185;41.506;24.938;2023-09-18T03:43:15;5.23;;;3.60;;
8293;SDS011;4185;41.506;24.938;2023-09-18T03:45:42;4.73;;;3.67;;
8293;SDS011;4185;41.506;24.938;2023-09-18T03:48:09;4.30;;;3.83;;
8293;SDS011;4185;41.506;24.938;2023-09-18T03:50:35;5.23;;;3.97;;
8293;SDS011;4185;41.506;24.938;2023-09-18T03:53:03;4.33;;;3.37;;
8293;SDS011;4185;41.506;24.938;2023-09-18T03:55:30;6.77;;;3.70;;
8293;SDS011;4185;41.506;24.938;2023-09-18T03:57:58;8.67;;;3.73;;
8293;SDS011;4185;41.506;24.938;2023-09-18T04:00:25;5.60;;;3.80;;
8293;SDS011;4185;41.506;24.938;2023-09-18T04:02:52;4.40;;;3.20;;
8293;SDS011;4185;41.506;24.938;2023-09-18T04:05:19;3.63;;;3.23;;
8293;SDS011;4185;41.506;24.938;2023-09-18T04:07:45;5.37;;;3.47;;
8293;SDS011;4185;41.506;24.938;2023-09-18T04:10:13;6.33;;;3.60;;
8293;SDS011;4185;41.506;24.938;2023-09-18T04:12:44;5.20;;;3.57;;
8293;SDS011;4185;41.506;24.938;2023-09-18T04:15:14;7.77;;;3.50;;
8293;SDS011;4185;41.506;24.938;2023-09-18T04:17:43;6.13;;;3.17;;
8293;SDS011;4185;41.506;24.938;2023-09-18T04:20:10;4.10;;;3.70;;
8293;SDS011;4185;41.506;24.938;2023-09-18T04:22:43;6.93;;;3.33;;
8293;SDS011;4185;41.506;24.938;2023-09-18T04:25:14;4.73;;;3.60;;
8293;SDS011;4185;41.506;24.938;2023-09-18T04:27:41;4.93;;;3.27;;
8293;SDS011;4185;41.506;24.938;2023-09-18T04:30:08;4.20;;;3.03;;
8293;SDS011;4185;41.506;24.938;2023-09-18T04:32:37;6.07;;;3.03;;
8293;SDS011;4185;41.506;24.938;2023-09-18T04:35:04;5.30;;;3.60;;
8293;SDS011;4185;41.506;24.938;2023-09-18T04:37:35;7.30;;;3.83;;
8293;SDS011;4185;41.506;24.938;2023-09-18T04:40:04;4.83;;;3.00;;
8293;SDS011;4185;41.506;24.938;2023-09-18T04:42:35;4.27;;;3.13;;
8293;SDS011;4185;41.506;24.938;2023-09-18T04:45:03;4.33;;;2.70;;
8293;SDS011;4185;41.506;24.938;2023-09-18T04:47:30;3.47;;;2.70;;
8293;SDS011;4185;41.506;24.938;2023-09-18T04:49:58;3.67;;;3.00;;
8293;SDS011;4185;41.506;24.938;2023-09-18T04:52:25;4.13;;;3.10;;
8293;SDS011;4185;41.506;24.938;2023-09-18T04:54:52;3.80;;;3.00;;
8293;SDS011;4185;41.506;24.938;2023-09-18T04:57:19;5.00;;;3.07;;
8293;SDS011;4185;41.506;24.938;2023-09-18T04:59:47;7.30;;;3.70;;
8293;SDS011;4185;41.506;24.938;2023-09-18T05:02:14;4.40;;;3.30;;
8293;SDS011;4185;41.506;24.938;2023-09-18T05:04:41;5.63;;;3.20;;
8293;SDS011;4185;41.506;24.938;2023-09-18T05:07:09;6.00;;;3.00;;
8293;SDS011;4185;41.506;24.938;2023-09-18T05:09:36;3.83;;;3.10;;
8293;SDS011;4185;41.506;24.938;2023-09-18T05:12:04;4.80;;;3.30;;
8293;SDS011;4185;41.506;24.938;2023-09-18T05:14:33;5.20;;;3.17;;
8293;SDS011;4185;41.506;24.938;2023-09-18T05:17:00;5.60;;;3.63;;
8293;SDS011;4185;41.506;24.938;2023-09-18T05:19:27;6.50;;;4.13;;
8293;SDS011;4185;41.506;24.938;2023-09-18T05:21:54;4.67;;;4.13;;
8293;SDS011;4185;41.506;24.938;2023-09-18T05:24:22;6.40;;;4.37;;
8293;SDS011;4185;41.506;24.938;2023-09-18T05:26:52;6.33;;;4.07;;
8293;SDS011;4185;41.506;24.938;2023-09-18T05:29:19;7.43;;;3.87;;
8293;SDS011;4185;41.506;24.938;2023-09-18T05:31:46;5.37;;;3.67;;
8293;SDS011;4185;41.506;24.938;2023-09-18T05:34:13;5.50;;;3.77;;
8293;SDS011;4185;41.506;24.938;2023-09-18T05:36:39;4.10;;;3.53;;
8293;SDS011;4185;41.506;24.938;2023-09-18T05:39:06;8.17;;;4.03;;
8293;SDS011;4185;41.506;24.938;2023-09-18T05:41:36;5.20;;;4.23;;
8293;SDS011;4185;41.506;24.938;2023-09-18T05:44:03;6.87;;;3.93;;
8293;SDS011;4185;41.506;24.938;2023-09-18T05:46:33;5.83;;;3.93;;
8293;SDS011;4185;41.506;24.938;2023-09-18T05:49:00;5.27;;;3.40;;
8293;SDS011;4185;41.506;24.938;2023-09-18T05:51:27;5.67;;;3.20;;
8293;SDS011;4185;41.506;24.938;2023-09-18T05:53:53;3.30;;;3.00;;
8293;SDS011;4185;41.506;24.938;2023-09-18T05:56:20;5.27;;;2.73;;
8293;SDS011;4185;41.506;24.938;2023-09-18T05:58:50;5.30;;;3.20;;
8293;SDS011;4185;41.506;24.938;2023-09-18T06:01:18;3.47;;;2.73;;
8293;SDS011;4185;41.506;24.938;2023-09-18T06:03:45;4.63;;;2.83;;
8293;SDS011;4185;41.506;24.938;2023-09-18T06:06:12;4.67;;;2.60;;
8293;SDS011;4185;41.506;24.938;2023-09-18T06:08:39;5.93;;;2.67;;
8293;SDS011;4185;41.506;24.938;2023-09-18T06:11:06;3.47;;;2.67;;
8293;SDS011;4185;41.506;24.938;2023-09-18T06:13:33;3.23;;;2.43;;
8293;SDS011;4185;41.506;24.938;2023-09-18T06:16:02;4.17;;;2.73;;
8293;SDS011;4185;41.506;24.938;2023-09-18T06:18:33;3.97;;;2.57;;
8293;SDS011;4185;41.506;24.938;2023-09-18T06:21:00;3.30;;;2.60;;
8293;SDS011;4185;41.506;24.938;2023-09-18T06:23:27;2.87;;;2.23;;
8293;SDS011;4185;41.506;24.938;2023-09-18T06:25:54;5.10;;;2.70;;
8293;SDS011;4185;41.506;24.938;2023-09-18T06:28:21;5.63;;;2.70;;
8293;SDS011;4185;41.506;24.938;2023-09-18T06:30:48;3.73;;;2.70;;
8293;SDS011;4185;41.506;24.938;2023-09-18T06:33:16;4.33;;;2.67;;
8293;SDS011;4185;41.506;24.938;2023-09-18T06:35:43;4.33;;;2.60;;
8293;SDS011;4185;41.506;24.938;2023-09-18T06:38:10;6.20;;;2.70;;
8293;SDS011;4185;41.506;24.938;2023-09-18T06:40:37;3.10;;;2.60;;
8293;SDS011;4185;41.506;24.938;2023-09-18T06:43:04;2.77;;;2.43;;
8293;SDS011;4185;41.506;24.938;2023-09-18T06:45:31;3.77;;;2.77;;
8293;SDS011;4185;41.506;24.938;2023-09-18T06:47:58;4.83;;;2.50;;
8293;SDS011;4185;41.506;24.938;2023-09-18T06:50:27;5.63;;;2.53;;
8293;SDS011;4185;41.506;24.938;2023-09-18T06:52:54;4.43;;;2.83;;
8293;SDS011;4185;41.506;24.938;2023-09-18T06:55:21;5.07;;;2.73;;
8293;SDS011;4185;41.506;24.938;2023-09-18T06:57:48;3.97;;;2.63;;
8293;SDS011;4185;41.506;24.938;2023-09-18T07:00:17;4.67;;;2.83;;
8293;SDS011;4185;41.506;24.938;2023-09-18T07:02:45;2.77;;;2.30;;
8293;SDS011;4185;41.506;24.938;2023-09-18T07:05:12;3.77;;;2.87;;
8293;SDS011;4185;41.506;24.938;2023-09-18T07:07:40;3.10;;;2.80;;
8293;SDS011;4185;41.506;24.938;2023-09-18T07:10:07;3.13;;;2.50;;
8293;SDS011;4185;41.506;24.938;2023-09-18T07:12:33;3.20;;;2.90;;
8293;SDS011;4185;41.506;24.938;2023-09-18T07:15:01;4.63;;;3.03;;
8293;SDS011;4185;41.506;24.938;2023-09-18T07:17:29;4.83;;;3.27;;
8293;SDS011;4185;41.506;24.938;2023-09-18T07:19:56;5.13;;;2.80;;
8293;SDS011;4185;41.506;24.938;2023-09-18T07:22:24;6.40;;;3.47;;
8293;SDS011;4185;41.506;24.938;2023-09-18T07:24:52;3.80;;;2.60;;
8293;SDS011;4185;41.506;24.938;2023-09-18T07:27:19;3.17;;;2.83;;
8293;SDS011;4185;41.506;24.938;2023-09-18T07:29:45;2.80;;;2.40;;
8293;SDS011;4185;41.506;24.938;2023-09-18T07:32:12;3.43;;;2.80;;
8293;SDS011;4185;41.506;24.938;2023-09-18T07:34:40;3.07;;;2.50;;
8293;SDS011;4185;41.506;24.938;2023-09-18T07:37:06;4.73;;;2.97;;
8293;SDS011;4185;41.506;24.938;2023-09-18T07:39:33;3.83;;;2.50;;
8293;SDS011;4185;41.506;24.938;2023-09-18T07:42:01;2.80;;;2.50;;
8293;SDS011;4185;41.506;24.938;2023-09-18T07:44:29;3.87;;;2.70;;
8293;SDS011;4185;41.506;24.938;2023-09-18T07:46:55;3.97;;;2.90;;
8293;SDS011;4185;41.506;24.938;2023-09-18T07:49:22;5.67;;;3.00;;
8293;SDS011;4185;41.506;24.938;2023-09-18T07:51:49;3.03;;;2.63;;
8293;SDS011;4185;41.506;24.938;2023-09-18T07:54:16;3.87;;;2.77;;
8293;SDS011;4185;41.506;24.938;2023-09-18T07:56:42;6.90;;;2.67;;
8293;SDS011;4185;41.506;24.938;2023-09-18T07:59:10;3.63;;;2.60;;
8293;SDS011;4185;41.506;24.938;2023-09-18T08:01:39;5.47;;;3.17;;
8293;SDS011;4185;41.506;24.938;2023-09-18T08:04:07;3.63;;;3.00;;
8293;SDS011;4185;41.506;24.938;2023-09-18T08:06:34;4.80;;;3.23;;
8293;SDS011;4185;41.506;24.938;2023-09-18T08:09:00;3.37;;;3.00;;
8293;SDS011;4185;41.506;24.938;2023-09-18T08:11:28;4.30;;;3.23;;
8293;SDS011;4185;41.506;24.938;2023-09-18T08:13:55;5.07;;;3.97;;
8293;SDS011;4185;41.506;24.938;2023-09-18T08:16:23;3.93;;;3.47;;
8293;SDS011;4185;41.506;24.938;2023-09-18T08:18:50;5.33;;;4.23;;
8293;SDS011;4185;41.506;24.938;2023-09-18T08:21:17;4.97;;;4.30;;
8293;SDS011;4185;41.506;24.938;2023-09-18T08:23:45;4.70;;;4.13;;
8293;SDS011;4185;41.506;24.938;2023-09-18T08:26:11;5.03;;;4.53;;
8293;SDS011;4185;41.506;24.938;2023-09-18T08:28:39;4.70;;;4.30;;
8293;SDS011;4185;41.506;24.938;2023-09-18T08:31:08;5.60;;;5.10;;
8293;SDS011;4185;41.506;24.938;2023-09-18T08:33:36;7.53;;;5.20;;
8293;SDS011;4185;41.506;24.938;2023-09-18T08:36:03;5.73;;;5.23;;
8293;SDS011;4185;41.506;24.938;2023-09-18T08:38:30;7.53;;;5.60;;
8293;SDS011;4185;41.506;24.938;2023-09-18T08:40:57;7.60;;;5.60;;
8293;SDS011;4185;41.506;24.938;2023-09-18T08:43:25;5.67;;;5.17;;
8293;SDS011;4185;41.506;24.938;2023-09-18T08:45:53;6.20;;;5.53;;
8293;SDS011;4185;41.506;24.938;2023-09-18T08:48:26;7.57;;;5.57;;
8293;SDS011;4185;41.506;24.938;2023-09-18T08:51:01;7.10;;;6.50;;
8293;SDS011;4185;41.506;24.938;2023-09-18T08:53:30;5.60;;;4.87;;
8293;SDS011;4185;41.506;24.938;2023-09-18T08:55:57;6.23;;;5.63;;
8293;SDS011;4185;41.506;24.938;2023-09-18T08:58:27;6.43;;;5.10;;
8293;SDS011;4185;41.506;24.938;2023-09-18T09:00:58;5.57;;;4.70;;
8293;SDS011;4185;41.506;24.938;2023-09-18T09:03:26;6.47;;;5.47;;
8293;SDS011;4185;41.506;24.938;2023-09-18T09:05:53;6.20;;;4.47;;
8293;SDS011;4185;41.506;24.938;2023-09-18T09:08:21;5.17;;;4.67;;
8293;SDS011;4185;41.506;24.938;2023-09-18T09:10:48;5.57;;;5.00;;
8293;SDS011;4185;41.506;24.938;2023-09-18T09:13:15;5.13;;;4.20;;
8293;SDS011;4185;41.506;24.938;2023-09-18T09:15:45;4.90;;;4.50;;
8293;SDS011;4185;41.506;24.938;2023-09-18T09:18:13;4.73;;;4.33;;
8293;SDS011;4185;41.506;24.938;2023-09-18T09:20:41;4.27;;;3.93;;
8293;SDS011;4185;41.506;24.938;2023-09-18T09:23:18;4.57;;;4.17;;
8293;SDS011;4185;41.506;24.938;2023-09-18T09:25:46;5.10;;;4.37;;
8293;SDS011;4185;41.506;24.938;2023-09-18T09:28:13;4.33;;;3.90;;
8293;SDS011;4185;41.506;24.938;2023-09-18T09:30:41;4.10;;;3.70;;
8293;SDS011;4185;41.506;24.938;2023-09-18T09:33:09;5.13;;;4.17;;
8293;SDS011;4185;41.506;24.938;2023-09-18T09:35:38;4.57;;;4.17;;
8293;SDS011;4185;41.506;24.938;2023-09-18T09:38:08;4.93;;;3.87;;
8293;SDS011;4185;41.506;24.938;2023-09-18T09:40:38;4.37;;;3.97;;
8293;SDS011;4185;41.506;24.938;2023-09-18T09:43:07;4.80;;;4.10;;
8293;SDS011;4185;41.506;24.938;2023-09-18T09:45:35;4.67;;;4.23;;
8293;SDS011;4185;41.506;24.938;2023-09-18T09:48:03;3.90;;;3.57;;
8293;SDS011;4185;41.506;24.938;2023-09-18T09:50:31;4.47;;;4.07;;
8293;SDS011;4185;41.506;24.938;2023-09-18T09:52:58;4.60;;;3.97;;
8293;SDS011;4185;41.506;24.938;2023-09-18T09:55:26;3.97;;;3.43;;
8293;SDS011;4185;41.506;24.938;2023-09-18T09:57:55;4.70;;;3.80;;
8293;SDS011;4185;41.506;24.938;2023-09-18T10:00:29;4.77;;;4.30;;
8293;SDS011;4185;41.506;24.938;2023-09-18T10:03:02;3.97;;;3.40;;
8293;SDS011;4185;41.506;24.938;2023-09-18T10:05:31;3.93;;;3.60;;
8293;SDS011;4185;41.506;24.938;2023-09-18T10:08:00;3.80;;;3.50;;
8293;SDS011;4185;41.506;24.938;2023-09-18T10:10:32;3.30;;;3.00;;
8293;SDS011;4185;41.506;24.938;2023-09-18T10:13:06;4.47;;;3.47;;
8293;SDS011;4185;41.506;24.938;2023-09-18T10:15:38;3.83;;;3.30;;
8293;SDS011;4185;41.506;24.938;2023-09-18T10:18:10;3.87;;;3.47;;
8293;SDS011;4185;41.506;24.938;2023-09-18T10:20:56;4.03;;;3.40;;
8293;SDS011;4185;41.506;24.938;2023-09-18T10:23:32;3.30;;;3.07;;
8293;SDS011;4185;41.506;24.938;2023-09-18T10:26:06;4.03;;;3.20;;
8293;SDS011;4185;41.506;24.938;2023-09-18T10:28:33;3.00;;;2.70;;
8293;SDS011;4185;41.506;24.938;2023-09-18T10:31:02;5.40;;;3.50;;
8293;SDS011;4185;41.506;24.938;2023-09-18T10:33:31;3.00;;;2.70;;
8293;SDS011;4185;41.506;24.938;2023-09-18T10:35:58;3.30;;;2.87;;
8293;SDS011;4185;41.506;24.938;2023-09-18T10:38:28;3.43;;;3.13;;
8293;SDS011;4185;41.506;24.938;2023-09-18T10:40:57;3.30;;;3.00;;
8293;SDS011;4185;41.506;24.938;2023-09-18T10:43:24;4.13;;;2.97;;
8293;SDS011;4185;41.506;24.938;2023-09-18T10:45:51;5.23;;;2.70;;
8293;SDS011;4185;41.506;24.938;2023-09-18T10:48:20;3.13;;;2.83;;
8293;SDS011;4185;41.506;24.938;2023-09-18T10:50:48;5.23;;;2.67;;
8293;SDS011;4185;41.506;24.938;2023-09-18T10:53:17;4.40;;;3.00;;
8293;SDS011;4185;41.506;24.938;2023-09-18T10:55:46;4.43;;;3.33;;
8293;SDS011;4185;41.506;24.938;2023-09-18T10:58:22;3.30;;;2.40;;
8293;SDS011;4185;41.506;24.938;2023-09-18T11:00:50;3.33;;;2.53;;
8293;SDS011;4185;41.506;24.938;2023-09-18T11:03:18;2.60;;;2.40;;
8293;SDS011;4185;41.506;24.938;2023-09-18T11:05:46;3.50;;;2.80;;
8293;SDS011;4185;41.506;24.938;2023-09-18T11:08:24;2.77;;;2.50;;
8293;SDS011;4185;41.506;24.938;2023-09-18T11:10:59;3.50;;;3.00;;
8293;SDS011;4185;41.506;24.938;2023-09-18T11:13:34;3.27;;;2.73;;
8293;SDS011;4185;41.506;24.938;2023-09-18T11:16:12;2.87;;;2.67;;
8293;SDS011;4185;41.506;24.938;2023-09-18T11:18:41;4.00;;;2.57;;
8293;SDS011;4185;41.506;24.938;2023-09-18T11:21:10;2.90;;;2.57;;
8293;SDS011;4185;41.506;24.938;2023-09-18T11:23:38;4.20;;;2.40;;
8293;SDS011;4185;41.506;24.938;2023-09-18T11:26:08;2.80;;;2.30;;
8293;SDS011;4185;41.506;24.938;2023-09-18T11:28:36;5.20;;;2.50;;
8293;SDS011;4185;41.506;24.938;2023-09-18T11:31:03;3.17;;;2.30;;
8293;SDS011;4185;41.506;24.938;2023-09-18T11:33:31;2.50;;;2.10;;
8293;SDS011;4185;41.506;24.938;2023-09-18T11:36:01;3.30;;;2.37;;
8293;SDS011;4185;41.506;24.938;2023-09-18T11:38:32;2.70;;;2.40;;
8293;SDS011;4185;41.506;24.938;2023-09-18T11:41:01;2.73;;;2.40;;
8293;SDS011;4185;41.506;24.938;2023-09-18T11:43:46;3.57;;;2.50;;
8293;SDS011;4185;41.506;24.938;2023-09-18T11:46:12;2.73;;;2.43;;
8293;SDS011;4185;41.506;24.938;2023-09-18T11:48:44;2.60;;;2.10;;
8293;SDS011;4185;41.506;24.938;2023-09-18T11:51:15;3.00;;;2.30;;
8293;SDS011;4185;41.506;24.938;2023-09-18T11:53:51;3.77;;;2.53;;
8293;SDS011;4185;41.506;24.938;2023-09-18T11:56:21;3.27;;;2.20;;
8293;SDS011;4185;41.506;24.938;2023-09-18T11:58:49;2.83;;;2.30;;
8293;SDS011;4185;41.506;24.938;2023-09-18T12:01:17;2.73;;;2.33;;
8293;SDS011;4185;41.506;24.938;2023-09-18T12:03:44;2.30;;;2.10;;
8293;SDS011;4185;41.506;24.938;2023-09-18T12:06:13;2.60;;;2.17;;
8293;SDS011;4185;41.506;24.938;2023-09-18T12:08:41;2.93;;;2.13;;
8293;SDS011;4185;41.506;24.938;2023-09-18T12:11:09;2.53;;;2.33;;
8293;SDS011;4185;41.506;24.938;2023-09-18T12:13:41;4.70;;;2.20;;
8293;SDS011;4185;41.506;24.938;2023-09-18T12:16:08;2.57;;;1.77;;
8293;SDS011;4185;41.506;24.938;2023-09-18T12:18:35;3.37;;;2.20;;
8293;SDS011;4185;41.506;24.938;2023-09-18T12:21:05;2.40;;;2.20;;
8293;SDS011;4185;41.506;24.938;2023-09-18T12:23:39;2.20;;;2.00;;
8293;SDS011;4185;41.506;24.938;2023-09-18T12:26:07;3.83;;;2.27;;
8293;SDS011;4185;41.506;24.938;2023-09-18T12:28:38;2.60;;;2.37;;
8293;SDS011;4185;41.506;24.938;2023-09-18T12:31:05;3.00;;;2.30;;
8293;SDS011;4185;41.506;24.938;2023-09-18T12:33:33;2.40;;;2.00;;
8293;SDS011;4185;41.506;24.938;2023-09-18T12:36:01;2.93;;;2.10;;
8293;SDS011;4185;41.506;24.938;2023-09-18T12:38:29;2.20;;;1.97;;
8293;SDS011;4185;41.506;24.938;2023-09-18T12:40:55;2.30;;;2.10;;
8293;SDS011;4185;41.506;24.938;2023-09-18T12:43:33;2.70;;;2.23;;
8293;SDS011;4185;41.506;24.938;2023-09-18T12:46:02;2.23;;;2.00;;
8293;SDS011;4185;41.506;24.938;2023-09-18T12:48:30;3.03;;;1.88;;
8293;SDS011;4185;41.506;24.938;2023-09-18T12:51:02;3.97;;;2.33;;
8293;SDS011;4185;41.506;24.938;2023-09-18T12:53:30;3.47;;;2.20;;
8293;SDS011;4185;41.506;24.938;2023-09-18T12:56:04;3.53;;;2.30;;
8293;SDS011;4185;41.506;24.938;2023-09-18T12:58:33;2.70;;;2.15;;
8293;SDS011;4185;41.506;24.938;2023-09-18T13:01:03;3.83;;;2.10;;
8293;SDS011;4185;41.506;24.938;2023-09-18T13:03:34;3.85;;;1.88;;
8293;SDS011;4185;41.506;24.938;2023-09-18T13:06:11;2.70;;;2.20;;
8293;SDS011;4185;41.506;24.938;2023-09-18T13:08:42;2.28;;;1.88;;
8293;SDS011;4185;41.506;24.938;2023-09-18T13:11:09;3.17;;;2.47;;
8293;SDS011;4185;41.506;24.938;2023-09-18T13:13:40;2.80;;;2.30;;
8293;SDS011;4185;41.506;24.938;2023-09-18T13:16:09;4.38;;;2.05;;
8293;SDS011;4185;41.506;24.938;2023-09-18T13:18:36;2.35;;;1.75;;
8293;SDS011;4185;41.506;24.938;2023-09-18T13:21:13;2.22;;;2.03;;
8293;SDS011;4185;41.506;24.938;2023-09-18T13:23:42;2.30;;;2.10;;
8293;SDS011;4185;41.506;24.938;2023-09-18T13:26:08;2.20;;;2.00;;
8293;SDS011;4185;41.506;24.938;2023-09-18T13:28:35;2.50;;;1.90;;
8293;SDS011;4185;41.506;24.938;2023-09-18T13:31:06;2.13;;;1.90;;
8293;SDS011;4185;41.506;24.938;2023-09-18T13:33:37;2.13;;;1.90;;
8293;SDS011;4185;41.506;24.938;2023-09-18T13:36:04;1.95;;;1.77;;
8293;SDS011;4185;41.506;24.938;2023-09-18T13:38:31;2.42;;;2.00;;
8293;SDS011;4185;41.506;24.938;2023-09-18T13:40:58;1.80;;;1.70;;
8293;SDS011;4185;41.506;24.938;2023-09-18T13:43:25;1.85;;;1.70;;
8293;SDS011;4185;41.506;24.938;2023-09-18T13:45:52;3.97;;;2.33;;
8293;SDS011;4185;41.506;24.938;2023-09-18T13:48:23;3.72;;;2.40;;
8293;SDS011;4185;41.506;24.938;2023-09-18T13:50:51;3.00;;;1.80;;
8293;SDS011;4185;41.506;24.938;2023-09-18T13:53:18;4.82;;;2.67;;
8293;SDS011;4185;41.506;24.938;2023-09-18T13:55:44;3.33;;;2.83;;
8293;SDS011;4185;41.506;24.938;2023-09-18T13:58:11;3.03;;;2.40;;
8293;SDS011;4185;41.506;24.938;2023-09-18T14:00:38;2.35;;;2.00;;
8293;SDS011;4185;41.506;24.938;2023-09-18T14:03:05;2.20;;;1.80;;
8293;SDS011;4185;41.506;24.938;2023-09-18T14:05:33;2.50;;;2.30;;
8293;SDS011;4185;41.506;24.938;2023-09-18T14:08:00;2.63;;;2.28;;
8293;SDS011;4185;41.506;24.938;2023-09-18T14:10:28;3.38;;;2.08;;
8293;SDS011;4185;41.506;24.938;2023-09-18T14:12:54;2.60;;;2.40;;
8293;SDS011;4185;41.506;24.938;2023-09-18T14:15:22;2.40;;;2.20;;
8293;SDS011;4185;41.506;24.938;2023-09-18T14:17:49;3.50;;;2.45;;
8293;SDS011;4185;41.506;24.938;2023-09-18T14:20:16;3.40;;;2.40;;
8293;SDS011;4185;41.506;24.938;2023-09-18T14:22:46;3.70;;;2.30;;
8293;SDS011;4185;41.506;24.938;2023-09-18T14:25:14;2.33;;;2.13;;
8293;SDS011;4185;41.506;24.938;2023-09-18T14:27:41;2.88;;;2.20;;
8293;SDS011;4185;41.506;24.938;2023-09-18T14:30:09;3.00;;;2.20;;
8293;SDS011;4185;41.506;24.938;2023-09-18T14:32:38;2.70;;;2.47;;
8293;SDS011;4185;41.506;24.938;2023-09-18T14:35:05;2.53;;;2.25;;
8293;SDS011;4185;41.506;24.938;2023-09-18T14:37:33;2.35;;;2.15;;
8293;SDS011;4185;41.506;24.938;2023-09-18T14:40:01;3.15;;;2.30;;
8293;SDS011;4185;41.506;24.938;2023-09-18T14:42:28;3.00;;;2.42;;
8293;SDS011;4185;41.506;24.938;2023-09-18T14:44:55;3.15;;;2.45;;
8293;SDS011;4185;41.506;24.938;2023-09-18T14:47:22;2.80;;;2.55;;
8293;SDS011;4185;41.506;24.938;2023-09-18T14:49:49;3.75;;;2.85;;
8293;SDS011;4185;41.506;24.938;2023-09-18T14:52:15;2.80;;;2.60;;
8293;SDS011;4185;41.506;24.938;2023-09-18T14:54:43;4.18;;;2.80;;
8293;SDS011;4185;41.506;24.938;2023-09-18T14:57:11;4.05;;;2.80;;
8293;SDS011;4185;41.506;24.938;2023-09-18T14:59:38;2.92;;;2.70;;
8293;SDS011;4185;41.506;24.938;2023-09-18T15:02:07;4.05;;;3.20;;
8293;SDS011;4185;41.506;24.938;2023-09-18T15:04:34;4.13;;;3.45;;
8293;SDS011;4185;41.506;24.938;2023-09-18T15:07:02;3.72;;;3.42;;